Terminal Aerodrome Forecast
Issued by NWS Twin Cities, MN

Home | Current Version | Previous Version | Text Only | Print | Product List | Glossary Off
Versions: 1 2 3 4 5 6 7 8 9 10 11 12 13 14

000
FTUS43 KMPX 081100
TAFSTC
TAF
KSTC 081120Z 0812/0912 30009KT P6SM FEW070
     FM081500 31016G26KT P6SM BKN050
     FM090100 31006KT P6SM SKC
     FM090600 29002KT P6SM SKC=

USA.gov is the U.S. government's official web portal to all federal, state and local government web resources and services.